createdAt,value
2017-10-04T00:01:53.876Z,58.60
2017-10-04T00:04:21.953Z,58.60
2017-10-04T00:06:50.032Z,58.90
2017-10-04T00:09:18.111Z,59.70
2017-10-04T00:11:46.182Z,59.60
2017-10-04T00:14:14.276Z,59.20
2017-10-04T00:16:43.120Z,60.00
2017-10-04T00:19:11.198Z,60.00
2017-10-04T00:21:39.276Z,60.80
2017-10-04T00:24:07.359Z,60.90
2017-10-04T00:26:35.435Z,61.00
2017-10-04T00:29:03.516Z,60.90
2017-10-04T00:31:31.600Z,60.60
2017-10-04T00:34:00.451Z,62.30
2017-10-04T00:36:28.531Z,62.30
2017-10-04T00:38:56.619Z,62.40
2017-10-04T00:41:24.688Z,62.40
2017-10-04T00:43:52.775Z,63.30
2017-10-04T00:46:21.623Z,64.50
2017-10-04T00:48:49.760Z,64.50
2017-10-04T00:51:17.862Z,65.60
2017-10-04T00:53:45.944Z,65.00
2017-10-04T00:56:14.014Z,63.90
2017-10-04T00:58:42.103Z,64.40
2017-10-04T01:01:10.179Z,64.40
2017-10-04T01:03:38.271Z,63.70
2017-10-04T01:06:07.103Z,64.10
2017-10-04T01:08:35.195Z,64.10
2017-10-04T01:11:03.275Z,64.80
2017-10-04T01:13:31.351Z,65.30
2017-10-04T01:15:59.443Z,65.20
2017-10-04T01:18:27.519Z,64.30
2017-10-04T01:20:55.599Z,64.00
2017-10-04T01:23:24.442Z,64.40
2017-10-04T01:25:52.575Z,64.50
2017-10-04T01:28:20.652Z,64.50
2017-10-04T01:30:48.743Z,64.40
2017-10-04T01:33:16.823Z,64.40
2017-10-04T01:35:44.915Z,64.30
2017-10-04T01:38:12.990Z,64.30
2017-10-04T01:40:41.084Z,63.90
2017-10-04T01:43:09.159Z,65.00
2017-10-04T01:45:37.234Z,65.80
2017-10-04T01:48:05.347Z,66.70
2017-10-04T01:50:33.428Z,67.40
2017-10-04T01:53:01.572Z,67.60
2017-10-04T01:55:30.446Z,68.80
2017-10-04T01:57:58.519Z,68.80
2017-10-04T02:00:26.607Z,67.10
2017-10-04T02:02:55.451Z,67.40
2017-10-04T02:05:23.535Z,67.40
2017-10-04T02:07:51.618Z,67.40
2017-10-04T02:10:19.751Z,68.50
2017-10-04T02:12:47.823Z,67.40
2017-10-04T02:15:15.907Z,67.40
2017-10-04T02:17:43.978Z,67.40
2017-10-04T02:20:12.064Z,67.40
2017-10-04T02:22:40.131Z,66.30
2017-10-04T02:25:08.225Z,66.50
2017-10-04T02:27:36.303Z,65.90
2017-10-04T02:30:04.388Z,67.40
2017-10-04T02:32:33.231Z,67.40
2017-10-04T02:35:01.311Z,67.30
2017-10-04T02:37:29.404Z,66.40
2017-10-04T02:39:57.488Z,66.10
2017-10-04T02:42:25.561Z,66.30
2017-10-04T02:44:53.639Z,65.80
2017-10-04T02:47:22.484Z,65.70
2017-10-04T02:49:51.340Z,65.00
2017-10-04T02:52:20.174Z,64.90
2017-10-04T02:54:48.267Z,64.80
2017-10-04T02:57:16.335Z,65.80
2017-10-04T02:59:44.419Z,65.60
2017-10-04T03:02:12.500Z,64.80
2017-10-04T03:04:40.580Z,64.60
2017-10-04T03:07:09.427Z,65.30
2017-10-04T03:09:37.544Z,65.30
2017-10-04T03:12:06.375Z,65.50
2017-10-04T03:14:34.456Z,65.40
2017-10-04T03:17:02.519Z,65.50
2017-10-04T03:19:31.361Z,64.90
2017-10-04T03:21:59.427Z,64.90
2017-10-04T03:24:27.503Z,65.50
2017-10-04T03:26:55.573Z,66.40
2017-10-04T03:29:23.659Z,65.50
2017-10-04T03:31:52.499Z,67.10
2017-10-04T03:34:20.572Z,67.10
2017-10-04T03:36:48.656Z,67.10
2017-10-04T03:39:16.726Z,67.10
2017-10-04T03:41:44.817Z,67.00
2017-10-04T03:44:12.887Z,66.90
2017-10-04T03:46:40.972Z,66.30
2017-10-04T03:49:09.044Z,66.90
2017-10-04T03:51:37.114Z,66.70
2017-10-04T03:54:05.187Z,65.70
2017-10-04T03:56:33.276Z,65.70
2017-10-04T03:59:02.115Z,66.60
2017-10-04T04:01:30.200Z,66.60
2017-10-04T04:03:58.273Z,65.80
2017-10-04T04:06:26.355Z,66.90
2017-10-04T04:08:54.431Z,66.90
2017-10-04T04:11:22.516Z,66.80
2017-10-04T04:13:50.597Z,66.90
2017-10-04T04:16:19.466Z,66.90
2017-10-04T04:18:47.551Z,66.80
2017-10-04T04:21:15.624Z,66.90
2017-10-04T04:23:43.703Z,66.50
2017-10-04T04:26:12.559Z,65.70
2017-10-04T04:28:40.639Z,65.70
2017-10-04T04:31:08.722Z,66.50
2017-10-04T04:33:36.803Z,65.70
2017-10-04T04:36:04.888Z,66.60
2017-10-04T04:38:51.595Z,66.00
2017-10-04T04:41:20.455Z,64.80
2017-10-04T04:43:48.547Z,64.60
2017-10-04T04:46:16.646Z,66.00
2017-10-04T04:48:45.491Z,65.40
2017-10-04T04:51:13.579Z,65.20
2017-10-04T04:53:41.685Z,66.10
2017-10-04T04:56:10.527Z,65.70
2017-10-04T04:58:38.596Z,65.60
2017-10-04T05:01:06.687Z,65.20
2017-10-04T05:03:34.768Z,65.30
2017-10-04T05:06:02.859Z,65.20
2017-10-04T05:08:31.706Z,65.50
2017-10-04T05:10:59.791Z,65.50
2017-10-04T05:13:27.876Z,65.40
2017-10-04T05:15:55.950Z,66.30
2017-10-04T05:18:24.020Z,66.70
2017-10-04T05:20:52.096Z,67.10
2017-10-04T05:23:20.959Z,67.20
2017-10-04T05:25:49.042Z,66.80
2017-10-04T05:28:17.120Z,66.60
2017-10-04T05:30:45.268Z,68.30
2017-10-04T05:33:13.331Z,66.60
2017-10-04T05:35:41.424Z,66.60
2017-10-04T05:38:09.507Z,67.30
2017-10-04T05:40:37.586Z,66.70
2017-10-04T05:43:05.673Z,66.60
2017-10-04T05:45:33.783Z,66.70
2017-10-04T05:48:01.847Z,66.70
2017-10-04T05:50:29.932Z,66.70
2017-10-04T05:52:58.015Z,66.60
2017-10-04T05:55:26.091Z,66.20
2017-10-04T05:57:54.162Z,65.10
2017-10-04T06:00:22.253Z,65.40
2017-10-04T06:02:50.327Z,63.70
2017-10-04T06:05:18.411Z,63.80
2017-10-04T06:07:46.481Z,63.00
2017-10-04T06:10:14.559Z,62.90
2017-10-04T06:12:42.669Z,63.30
2017-10-04T06:15:10.767Z,64.70
2017-10-04T06:17:38.848Z,63.80
2017-10-04T06:20:06.957Z,64.50
2017-10-04T06:22:35.035Z,64.60
2017-10-04T06:25:03.106Z,64.10
2017-10-04T06:27:31.176Z,63.00
2017-10-04T06:29:59.254Z,63.70
2017-10-04T06:32:27.328Z,63.10
2017-10-04T06:34:56.165Z,63.60
2017-10-04T06:37:25.028Z,62.90
2017-10-04T06:39:53.180Z,62.80
2017-10-04T06:42:21.256Z,61.70
2017-10-04T06:44:50.104Z,61.80
2017-10-04T06:47:18.188Z,61.70
2017-10-04T06:49:46.319Z,61.80
2017-10-04T06:52:15.157Z,61.50
2017-10-04T06:54:43.231Z,61.40
2017-10-04T06:57:11.327Z,62.30
2017-10-04T06:59:40.174Z,61.10
2017-10-04T07:02:08.305Z,61.10
2017-10-04T07:04:37.152Z,61.60
2017-10-04T07:07:05.455Z,61.50
2017-10-04T07:09:33.549Z,60.80
2017-10-04T07:12:02.398Z,60.40
2017-10-04T07:14:30.476Z,60.40
2017-10-04T07:16:58.559Z,61.20
2017-10-04T07:19:26.636Z,60.30
2017-10-04T07:21:54.711Z,59.90
2017-10-04T07:24:22.788Z,58.80
2017-10-04T07:26:51.696Z,58.10
2017-10-04T07:29:20.535Z,57.40
2017-10-04T07:31:48.775Z,57.40
2017-10-04T07:34:16.882Z,56.60
2017-10-04T07:36:44.963Z,56.50
2017-10-04T07:39:13.057Z,56.70
2017-10-04T07:41:41.131Z,57.00
2017-10-04T07:44:09.220Z,57.00
2017-10-04T07:46:38.068Z,56.50
2017-10-04T07:49:06.159Z,56.40
2017-10-04T07:51:34.453Z,56.30
2017-10-04T07:54:03.311Z,55.10
2017-10-04T07:56:31.383Z,55.00
2017-10-04T07:58:59.467Z,54.10
2017-10-04T08:01:27.557Z,54.30
2017-10-04T08:03:55.642Z,53.60
2017-10-04T08:06:24.488Z,52.30
2017-10-04T08:08:52.708Z,52.30
2017-10-04T08:11:21.560Z,52.00
2017-10-04T08:13:49.635Z,51.90
2017-10-04T08:16:17.716Z,51.40
2017-10-04T08:18:45.802Z,51.70
2017-10-04T08:21:13.888Z,50.60
2017-10-04T08:23:42.755Z,50.70
2017-10-04T08:26:10.864Z,50.70
2017-10-04T08:28:39.704Z,50.90
2017-10-04T08:31:07.853Z,50.90
2017-10-04T08:33:35.936Z,49.90
2017-10-04T08:36:04.007Z,47.40
2017-10-04T08:38:32.096Z,46.40
2017-10-04T08:41:00.195Z,44.80
2017-10-04T08:43:28.279Z,42.60
2017-10-04T08:45:57.116Z,42.90
2017-10-04T08:48:37.846Z,42.90
2017-10-04T08:51:06.696Z,41.60
2017-10-04T08:53:34.790Z,41.40
2017-10-04T08:56:02.859Z,41.30
2017-10-04T08:58:30.943Z,41.30
2017-10-04T09:00:59.796Z,40.10
2017-10-04T09:03:27.885Z,39.80
2017-10-04T09:06:03.729Z,39.50
2017-10-04T09:08:31.819Z,39.00
2017-10-04T09:10:59.898Z,38.10
2017-10-04T09:13:27.976Z,38.70
2017-10-04T09:15:56.051Z,36.70
2017-10-04T09:18:24.911Z,37.40
2017-10-04T09:20:52.991Z,37.40
2017-10-04T09:23:21.088Z,36.70
2017-10-04T09:25:49.151Z,36.30
2017-10-04T09:28:17.232Z,36.60
2017-10-04T09:30:46.088Z,36.80
2017-10-04T09:33:14.187Z,36.70
2017-10-04T09:35:42.264Z,35.80
2017-10-04T09:38:10.350Z,35.10
2017-10-04T09:40:39.198Z,35.20
2017-10-04T09:43:07.270Z,35.20
2017-10-04T09:45:35.354Z,33.30
2017-10-04T09:48:03.440Z,34.00
2017-10-04T09:50:31.520Z,34.10
2017-10-04T09:53:00.369Z,34.70
2017-10-04T09:55:28.455Z,34.60
2017-10-04T09:57:56.549Z,34.60
2017-10-04T10:00:24.627Z,34.90
2017-10-04T10:02:53.485Z,35.20
2017-10-04T10:05:21.619Z,34.70
2017-10-04T10:07:49.917Z,34.70
2017-10-04T10:10:17.996Z,34.70
2017-10-04T10:12:46.827Z,34.60
2017-10-04T10:15:14.904Z,34.60
2017-10-04T10:17:42.987Z,35.40
2017-10-04T10:20:11.831Z,33.80
2017-10-04T10:22:39.939Z,33.60
2017-10-04T10:25:08.007Z,33.20
2017-10-04T10:27:36.083Z,33.50
2017-10-04T10:30:04.157Z,31.60
2017-10-04T10:32:32.236Z,31.80
2017-10-04T10:35:01.081Z,30.80
2017-10-04T10:37:29.159Z,30.80
2017-10-04T10:39:58.015Z,30.00
2017-10-04T10:42:26.098Z,30.00
2017-10-04T10:44:54.171Z,30.00
2017-10-04T10:47:22.252Z,30.10
2017-10-04T10:49:50.319Z,29.40
2017-10-04T10:52:18.420Z,29.20
2017-10-04T10:54:46.512Z,29.50
2017-10-04T10:57:14.604Z,30.30
2017-10-04T10:59:43.439Z,31.20
2017-10-04T11:02:12.305Z,31.30
2017-10-04T11:04:40.372Z,31.30
2017-10-04T11:07:08.442Z,30.40
2017-10-04T11:09:37.303Z,29.00
2017-10-04T11:12:05.378Z,29.00
2017-10-04T11:14:33.472Z,29.20
2017-10-04T11:17:02.301Z,27.60
2017-10-04T11:19:30.397Z,27.40
2017-10-04T11:21:58.498Z,27.70
2017-10-04T11:24:26.606Z,26.50
2017-10-04T11:26:54.705Z,26.40
2017-10-04T11:29:22.778Z,26.60
2017-10-04T11:31:50.864Z,25.60
2017-10-04T11:34:18.935Z,26.10
2017-10-04T11:36:47.008Z,26.40
2017-10-04T11:39:15.866Z,25.50
2017-10-04T11:41:43.948Z,25.30
2017-10-04T11:44:12.016Z,25.80
2017-10-04T11:46:40.090Z,25.00
2017-10-04T11:49:08.164Z,25.30
2017-10-04T11:51:36.308Z,25.60
2017-10-04T11:54:05.144Z,25.40
2017-10-04T11:56:33.218Z,25.40
2017-10-04T11:59:01.294Z,25.40
2017-10-04T12:01:29.359Z,25.10
2017-10-04T12:03:57.435Z,25.90
2017-10-04T12:06:25.498Z,25.50
2017-10-04T12:08:53.567Z,24.90
2017-10-04T12:11:21.644Z,24.90
2017-10-04T12:13:49.733Z,25.30
2017-10-04T12:16:17.794Z,24.80
2017-10-04T12:18:45.891Z,24.50
2017-10-04T12:21:13.963Z,25.10
2017-10-04T12:23:42.038Z,25.40
2017-10-04T12:26:10.116Z,25.70
2017-10-04T12:28:38.960Z,26.20
2017-10-04T12:31:07.036Z,25.90
2017-10-04T12:33:35.111Z,26.10
2017-10-04T12:36:03.192Z,26.10
2017-10-04T12:38:31.272Z,25.40
2017-10-04T12:40:59.348Z,24.90
2017-10-04T12:43:27.423Z,24.60
2017-10-04T12:45:55.497Z,24.10
2017-10-04T12:48:23.584Z,24.80
2017-10-04T12:50:51.651Z,25.30
2017-10-04T12:53:19.725Z,25.60
2017-10-04T12:55:47.787Z,25.90
2017-10-04T12:58:15.871Z,25.70
2017-10-04T13:00:43.955Z,25.20
2017-10-04T13:03:12.829Z,25.20
2017-10-04T13:05:40.895Z,25.20
2017-10-04T13:08:08.988Z,24.60
2017-10-04T13:10:37.824Z,25.50
2017-10-04T13:13:06.670Z,26.00
2017-10-04T13:15:35.511Z,25.70
2017-10-04T13:18:04.346Z,25.80
2017-10-04T13:20:33.191Z,26.20
2017-10-04T13:23:01.275Z,26.20
2017-10-04T13:25:29.347Z,25.30
2017-10-04T13:27:57.419Z,25.70
2017-10-04T13:30:25.491Z,25.40
2017-10-04T13:32:53.573Z,25.40
2017-10-04T13:35:21.634Z,25.10
2017-10-04T13:37:49.706Z,24.80
2017-10-04T13:40:17.809Z,24.90
2017-10-04T13:42:45.887Z,25.30
2017-10-04T13:45:13.969Z,25.90
2017-10-04T13:47:42.828Z,25.60
2017-10-04T13:50:10.896Z,25.50
2017-10-04T13:52:38.992Z,25.60
2017-10-04T13:55:07.062Z,26.00
2017-10-04T13:57:35.145Z,25.80
2017-10-04T14:00:03.208Z,26.10
2017-10-04T14:02:31.292Z,26.80
2017-10-04T14:05:00.152Z,26.70
2017-10-04T14:07:28.243Z,26.70
2017-10-04T14:09:56.315Z,26.40
2017-10-04T14:12:24.408Z,26.50
2017-10-04T14:14:53.252Z,25.80
2017-10-04T14:17:21.324Z,25.70
2017-10-04T14:19:49.400Z,25.00
2017-10-04T14:22:17.467Z,24.80
2017-10-04T14:24:45.552Z,24.90
2017-10-04T14:27:13.627Z,24.70
2017-10-04T14:29:41.715Z,25.10
2017-10-04T14:32:09.787Z,25.40
2017-10-04T14:34:37.868Z,25.90
2017-10-04T14:37:05.937Z,26.20
2017-10-04T14:39:34.015Z,26.00
2017-10-04T14:42:02.849Z,25.90
2017-10-04T14:44:30.928Z,25.90
2017-10-04T14:46:59.009Z,26.50
2017-10-04T14:49:27.834Z,27.30
2017-10-04T14:51:55.908Z,27.30
2017-10-04T14:54:23.995Z,27.30
2017-10-04T14:56:52.843Z,27.40
2017-10-04T14:59:20.927Z,27.40
2017-10-04T15:01:49.012Z,27.00
2017-10-04T15:04:17.091Z,27.40
2017-10-04T15:06:45.180Z,26.90
2017-10-04T15:09:13.256Z,27.40
2017-10-04T15:11:42.091Z,27.30
2017-10-04T15:14:10.183Z,27.20
2017-10-04T15:16:38.256Z,27.30
2017-10-04T15:19:06.331Z,27.30
2017-10-04T15:21:34.556Z,27.20
2017-10-04T15:24:02.636Z,27.20
2017-10-04T15:26:30.708Z,27.80
2017-10-04T15:28:58.799Z,28.60
2017-10-04T15:31:26.875Z,28.20
2017-10-04T15:33:54.952Z,27.90
2017-10-04T15:36:23.025Z,28.30
2017-10-04T15:38:51.112Z,29.30
2017-10-04T15:41:19.187Z,28.70
2017-10-04T15:43:47.280Z,28.30
2017-10-04T15:46:16.149Z,28.60
2017-10-04T15:48:44.221Z,28.60
2017-10-04T15:51:12.308Z,29.50
2017-10-04T15:53:41.153Z,29.20
2017-10-04T15:56:09.226Z,29.20
2017-10-04T15:58:38.087Z,29.20
2017-10-04T16:01:06.189Z,29.20
2017-10-04T16:03:34.255Z,29.50
2017-10-04T16:06:02.363Z,29.70
2017-10-04T16:08:30.463Z,29.80
2017-10-04T16:10:59.312Z,30.00
2017-10-04T16:13:27.385Z,29.90
2017-10-04T16:15:55.459Z,30.10
2017-10-04T16:18:24.016Z,30.40
2017-10-04T16:20:52.293Z,30.00
2017-10-04T16:23:20.367Z,30.50
2017-10-04T16:25:49.206Z,30.90
2017-10-04T16:28:17.291Z,30.90
2017-10-04T16:30:46.130Z,31.00
2017-10-04T16:33:14.200Z,30.90
2017-10-04T16:35:42.304Z,30.80
2017-10-04T16:38:10.375Z,30.90
2017-10-04T16:40:38.473Z,31.30
2017-10-04T16:43:07.318Z,31.70
2017-10-04T16:45:35.424Z,31.50
2017-10-04T16:48:03.482Z,32.10
2017-10-04T16:50:31.555Z,32.30
2017-10-04T16:52:59.615Z,32.20
2017-10-04T16:55:27.699Z,32.20
2017-10-04T16:57:55.780Z,32.40
2017-10-04T17:00:23.860Z,32.50
2017-10-04T17:02:51.932Z,32.80
2017-10-04T17:05:19.991Z,33.20
2017-10-04T17:07:48.076Z,33.10
2017-10-04T17:10:16.147Z,33.20
2017-10-04T17:12:44.228Z,33.30
2017-10-04T17:15:12.319Z,34.30
2017-10-04T17:17:41.156Z,33.30
2017-10-04T17:20:09.226Z,33.30
2017-10-04T17:22:37.298Z,34.30
2017-10-04T17:25:05.372Z,33.90
2017-10-04T17:27:33.459Z,34.00
2017-10-04T17:30:01.536Z,33.50
2017-10-04T17:32:29.607Z,34.70
2017-10-04T17:34:57.691Z,34.70
2017-10-04T17:37:25.768Z,34.80
2017-10-04T17:39:53.848Z,34.60
2017-10-04T17:42:22.687Z,35.00
2017-10-04T17:44:50.772Z,35.00
2017-10-04T17:47:18.876Z,34.60
2017-10-04T17:49:46.961Z,35.30
2017-10-04T17:52:15.808Z,35.40
2017-10-04T17:54:43.895Z,35.40
2017-10-04T17:57:11.967Z,35.80
2017-10-04T17:59:40.044Z,35.80
2017-10-04T18:02:08.137Z,34.90
2017-10-04T18:04:36.966Z,36.10
2017-10-04T18:07:05.056Z,36.00
2017-10-04T18:09:33.141Z,36.00
2017-10-04T18:12:01.226Z,36.40
2017-10-04T18:14:29.304Z,36.30
2017-10-04T18:16:57.391Z,37.20
2017-10-04T18:19:26.224Z,36.80
2017-10-04T18:21:54.302Z,36.80
2017-10-04T18:24:22.376Z,36.80
2017-10-04T18:26:51.290Z,37.60
2017-10-04T18:29:19.371Z,36.70
2017-10-04T18:31:47.460Z,36.40
2017-10-04T18:34:15.536Z,36.30
2017-10-04T18:36:44.381Z,36.50
2017-10-04T18:39:12.459Z,36.40
2017-10-04T18:41:40.532Z,35.80
2017-10-04T18:44:08.611Z,36.20
2017-10-04T18:46:36.695Z,36.70
2017-10-04T18:49:04.780Z,35.40
2017-10-04T18:51:32.856Z,36.00
2017-10-04T18:54:00.933Z,36.50
2017-10-04T18:56:29.788Z,36.60
2017-10-04T18:58:57.875Z,35.90
2017-10-04T19:01:25.960Z,36.20
2017-10-04T19:03:54.064Z,36.70
2017-10-04T19:06:22.141Z,36.60
2017-10-04T19:08:50.215Z,36.50
2017-10-04T19:11:18.304Z,36.70
2017-10-04T19:13:47.158Z,37.30
2017-10-04T19:16:16.021Z,37.70
2017-10-04T19:18:44.108Z,37.70
2017-10-04T19:21:12.192Z,37.80
2017-10-04T19:23:41.047Z,38.20
2017-10-04T19:26:09.132Z,38.20
2017-10-04T19:28:37.219Z,36.90
2017-10-04T19:31:05.300Z,36.90
2017-10-04T19:33:34.151Z,35.60
2017-10-04T19:36:02.316Z,35.50
2017-10-04T19:38:30.399Z,36.10
2017-10-04T19:40:58.497Z,36.20
2017-10-04T19:43:26.787Z,35.70
2017-10-04T19:45:55.628Z,35.10
2017-10-04T19:48:24.478Z,36.20
2017-10-04T19:50:53.320Z,34.90
2017-10-04T19:53:21.410Z,34.80
2017-10-04T19:55:49.480Z,34.70
2017-10-04T19:58:17.574Z,35.90
2017-10-04T20:00:46.428Z,34.40
2017-10-04T20:03:14.515Z,34.30
2017-10-04T20:05:43.612Z,35.00
2017-10-04T20:08:11.696Z,34.80
2017-10-04T20:10:39.773Z,35.00
2017-10-04T20:13:07.860Z,34.90
2017-10-04T20:15:36.711Z,35.90
2017-10-04T20:18:04.795Z,35.80
2017-10-04T20:20:32.880Z,35.80
2017-10-04T20:23:00.952Z,35.50
2017-10-04T20:25:29.076Z,36.80
2017-10-04T20:27:57.200Z,36.30
2017-10-04T20:30:25.681Z,35.30
2017-10-04T20:32:53.870Z,35.50
2017-10-04T20:35:22.724Z,35.50
2017-10-04T20:37:50.795Z,35.50
2017-10-04T20:40:18.891Z,35.30
2017-10-04T20:42:46.967Z,36.00
2017-10-04T20:45:15.073Z,36.20
2017-10-04T20:47:43.158Z,36.10
2017-10-04T20:50:11.488Z,35.90
2017-10-04T20:52:39.563Z,37.20
2017-10-04T20:55:07.976Z,36.10
2017-10-04T20:57:36.067Z,36.10
2017-10-04T21:00:04.141Z,36.10
2017-10-04T21:02:32.235Z,36.40
2017-10-04T21:05:00.314Z,36.20
2017-10-04T21:07:28.408Z,36.00
2017-10-04T21:09:56.486Z,36.10
2017-10-04T21:12:25.344Z,36.90
2017-10-04T21:14:53.425Z,36.90
2017-10-04T21:17:21.514Z,36.50
2017-10-04T21:19:49.658Z,36.40
2017-10-04T21:22:17.747Z,36.60
2017-10-04T21:24:45.833Z,36.60
2017-10-04T21:27:13.920Z,36.20
2017-10-04T21:29:42.776Z,36.30
2017-10-04T21:32:10.859Z,36.30
2017-10-04T21:34:38.952Z,36.00
2017-10-04T21:37:07.786Z,36.00
2017-10-04T21:39:35.901Z,36.00
2017-10-04T21:42:03.981Z,36.30
2017-10-04T21:44:32.851Z,36.50
2017-10-04T21:47:01.042Z,36.30
2017-10-04T21:49:29.132Z,36.00
2017-10-04T21:51:57.988Z,36.10
2017-10-04T21:54:26.067Z,36.10
2017-10-04T21:56:54.144Z,35.90
2017-10-04T21:59:22.229Z,35.70
2017-10-04T22:01:50.299Z,36.10
2017-10-04T22:04:18.375Z,36.20
2017-10-04T22:06:46.448Z,35.90
2017-10-04T22:09:14.519Z,35.60
2017-10-04T22:11:42.599Z,35.80
2017-10-04T22:14:11.635Z,35.50
2017-10-04T22:16:39.716Z,35.40
2017-10-04T22:19:07.789Z,35.70
2017-10-04T22:21:36.686Z,35.30
2017-10-04T22:24:04.763Z,35.30
2017-10-04T22:26:32.855Z,36.00
2017-10-04T22:29:00.947Z,35.20
2017-10-04T22:31:29.803Z,35.60
2017-10-04T22:33:57.884Z,35.50
2017-10-04T22:36:26.191Z,35.60
2017-10-04T22:38:55.049Z,35.30
2017-10-04T22:41:23.140Z,35.20
2017-10-04T22:43:51.219Z,35.20
2017-10-04T22:46:19.286Z,36.20
2017-10-04T22:48:47.366Z,35.00
2017-10-04T22:51:15.443Z,35.90
2017-10-04T22:53:44.297Z,35.60
2017-10-04T22:56:12.378Z,35.60
2017-10-04T22:58:40.457Z,35.60
2017-10-04T23:01:08.560Z,35.40
2017-10-04T23:03:37.403Z,35.60
2017-10-04T23:06:05.482Z,35.50
2017-10-04T23:08:33.575Z,35.30
2017-10-04T23:11:01.699Z,35.20
2017-10-04T23:13:30.552Z,35.60
2017-10-04T23:15:59.391Z,35.30
2017-10-04T23:18:28.243Z,35.40
2017-10-04T23:20:57.087Z,35.40
2017-10-04T23:23:25.160Z,35.30
2017-10-04T23:25:53.248Z,35.60
2017-10-04T23:28:21.320Z,36.10
2017-10-04T23:30:49.407Z,35.70
2017-10-04T23:33:17.479Z,35.70
2017-10-04T23:35:45.568Z,36.20
2017-10-04T23:38:14.406Z,35.90
2017-10-04T23:40:42.501Z,35.90
2017-10-04T23:43:10.585Z,36.00
2017-10-04T23:45:38.663Z,36.40
2017-10-04T23:48:06.740Z,36.00
2017-10-04T23:50:35.595Z,35.90
2017-10-04T23:53:03.667Z,35.80
2017-10-04T23:55:31.760Z,35.80
2017-10-04T23:57:59.840Z,36.50
